sensor_id;sensor_type;location;lat;lon;timestamp;temperature;humidity
3818;DHT22;1924;48.078;11.516;2023-06-14T00:02:13;14.40;69.50
3818;DHT22;1924;48.078;11.516;2023-06-14T00:04:41;14.30;70.00
3818;DHT22;1924;48.078;11.516;2023-06-14T00:07:10;14.20;69.90
3818;DHT22;1924;48.078;11.516;2023-06-14T00:09:39;14.20;69.90
3818;DHT22;1924;48.078;11.516;2023-06-14T00:12:06;14.30;69.80
3818;DHT22;1924;48.078;11.516;2023-06-14T00:14:34;14.10;70.40
3818;DHT22;1924;48.078;11.516;2023-06-14T00:17:00;14.10;70.20
3818;DHT22;1924;48.078;11.516;2023-06-14T00:19:28;14.10;70.30
3818;DHT22;1924;48.078;11.516;2023-06-14T00:21:56;14.10;71.10
3818;DHT22;1924;48.078;11.516;2023-06-14T00:24:24;14.00;70.70
3818;DHT22;1924;48.078;11.516;2023-06-14T00:26:51;14.00;70.90
3818;DHT22;1924;48.078;11.516;2023-06-14T00:29:17;14.00;70.90
3818;DHT22;1924;48.078;11.516;2023-06-14T00:31:44;14.00;71.20
3818;DHT22;1924;48.078;11.516;2023-06-14T00:34:11;14.00;71.50
3818;DHT22;1924;48.078;11.516;2023-06-14T00:36:37;13.90;71.50
3818;DHT22;1924;48.078;11.516;2023-06-14T00:39:04;14.00;71.80
3818;DHT22;1924;48.078;11.516;2023-06-14T00:41:32;13.90;71.90
3818;DHT22;1924;48.078;11.516;2023-06-14T00:43:59;14.00;71.90
3818;DHT22;1924;48.078;11.516;2023-06-14T00:46:26;14.00;71.90
3818;DHT22;1924;48.078;11.516;2023-06-14T00:48:53;13.80;72.10
3818;DHT22;1924;48.078;11.516;2023-06-14T00:51:21;13.80;72.40
3818;DHT22;1924;48.078;11.516;2023-06-14T00:53:48;13.80;72.40
3818;DHT22;1924;48.078;11.516;2023-06-14T00:56:15;13.80;72.60
3818;DHT22;1924;48.078;11.516;2023-06-14T00:58:44;13.90;72.50
3818;DHT22;1924;48.078;11.516;2023-06-14T01:01:11;13.90;72.40
3818;DHT22;1924;48.078;11.516;2023-06-14T01:03:38;13.80;72.40
3818;DHT22;1924;48.078;11.516;2023-06-14T01:06:11;13.80;72.40
3818;DHT22;1924;48.078;11.516;2023-06-14T01:08:47;13.60;73.00
3818;DHT22;1924;48.078;11.516;2023-06-14T01:11:21;13.50;73.70
3818;DHT22;1924;48.078;11.516;2023-06-14T01:13:51;13.50;73.90
3818;DHT22;1924;48.078;11.516;2023-06-14T01:16:19;13.50;74.10
3818;DHT22;1924;48.078;11.516;2023-06-14T01:18:46;13.50;73.90
3818;DHT22;1924;48.078;11.516;2023-06-14T01:21:21;13.50;73.50
3818;DHT22;1924;48.078;11.516;2023-06-14T01:23:50;13.70;74.10
3818;DHT22;1924;48.078;11.516;2023-06-14T01:26:19;13.50;73.80
3818;DHT22;1924;48.078;11.516;2023-06-14T01:28:47;13.30;74.50
3818;DHT22;1924;48.078;11.516;2023-06-14T01:31:17;13.40;74.10
3818;DHT22;1924;48.078;11.516;2023-06-14T01:33:45;13.10;74.60
3818;DHT22;1924;48.078;11.516;2023-06-14T01:36:12;13.10;75.10
3818;DHT22;1924;48.078;11.516;2023-06-14T01:38:40;13.20;75.20
3818;DHT22;1924;48.078;11.516;2023-06-14T01:41:10;13.10;74.90
3818;DHT22;1924;48.078;11.516;2023-06-14T01:43:37;13.20;75.00
3818;DHT22;1924;48.078;11.516;2023-06-14T01:46:06;13.20;75.10
3818;DHT22;1924;48.078;11.516;2023-06-14T01:48:33;13.10;75.10
3818;DHT22;1924;48.078;11.516;2023-06-14T01:51:00;13.10;75.40
3818;DHT22;1924;48.078;11.516;2023-06-14T01:53:26;13.00;75.00
3818;DHT22;1924;48.078;11.516;2023-06-14T01:55:53;13.00;75.10
3818;DHT22;1924;48.078;11.516;2023-06-14T01:58:22;13.00;74.90
3818;DHT22;1924;48.078;11.516;2023-06-14T02:00:49;13.00;75.80
3818;DHT22;1924;48.078;11.516;2023-06-14T02:03:16;13.00;75.10
3818;DHT22;1924;48.078;11.516;2023-06-14T02:05:44;13.10;75.20
3818;DHT22;1924;48.078;11.516;2023-06-14T02:08:11;13.00;75.40
3818;DHT22;1924;48.078;11.516;2023-06-14T02:10:38;13.10;74.70
3818;DHT22;1924;48.078;11.516;2023-06-14T02:13:05;13.00;74.80
3818;DHT22;1924;48.078;11.516;2023-06-14T02:15:33;12.80;75.20
3818;DHT22;1924;48.078;11.516;2023-06-14T02:18:01;12.80;75.30
3818;DHT22;1924;48.078;11.516;2023-06-14T02:20:28;12.70;75.90
3818;DHT22;1924;48.078;11.516;2023-06-14T02:22:55;12.70;75.80
3818;DHT22;1924;48.078;11.516;2023-06-14T02:25:22;12.60;75.70
3818;DHT22;1924;48.078;11.516;2023-06-14T02:27:49;12.60;75.40
3818;DHT22;1924;48.078;11.516;2023-06-14T02:30:16;12.60;75.50
3818;DHT22;1924;48.078;11.516;2023-06-14T02:32:44;12.60;75.70
3818;DHT22;1924;48.078;11.516;2023-06-14T02:35:10;12.70;75.40
3818;DHT22;1924;48.078;11.516;2023-06-14T02:37:38;12.40;76.40
3818;DHT22;1924;48.078;11.516;2023-06-14T02:40:06;12.30;76.50
3818;DHT22;1924;48.078;11.516;2023-06-14T04:02:05;11.90;80.10
3818;DHT22;1924;48.078;11.516;2023-06-14T04:04:32;12.00;80.10
3818;DHT22;1924;48.078;11.516;2023-06-14T04:07:00;12.00;80.30
3818;DHT22;1924;48.078;11.516;2023-06-14T04:09:28;12.10;80.00
3818;DHT22;1924;48.078;11.516;2023-06-14T04:11:55;12.20;80.10
3818;DHT22;1924;48.078;11.516;2023-06-14T04:14:22;12.20;80.00
3818;DHT22;1924;48.078;11.516;2023-06-14T04:16:49;12.30;80.00
3818;DHT22;1924;48.078;11.516;2023-06-14T04:19:17;12.30;80.20
3818;DHT22;1924;48.078;11.516;2023-06-14T04:21:44;12.30;80.20
3818;DHT22;1924;48.078;11.516;2023-06-14T04:24:10;12.40;80.00
3818;DHT22;1924;48.078;11.516;2023-06-14T04:26:39;12.40;80.30
3818;DHT22;1924;48.078;11.516;2023-06-14T04:29:06;12.50;80.30
3818;DHT22;1924;48.078;11.516;2023-06-14T04:31:33;12.60;80.00
3818;DHT22;1924;48.078;11.516;2023-06-14T04:34:02;12.90;79.50
3818;DHT22;1924;48.078;11.516;2023-06-14T04:36:34;13.10;79.20
3818;DHT22;1924;48.078;11.516;2023-06-14T04:39:02;13.20;78.90
3818;DHT22;1924;48.078;11.516;2023-06-14T04:41:29;13.30;78.50
3818;DHT22;1924;48.078;11.516;2023-06-14T04:43:57;13.40;77.90
3818;DHT22;1924;48.078;11.516;2023-06-14T04:46:27;13.60;77.80
3818;DHT22;1924;48.078;11.516;2023-06-14T04:48:54;13.80;77.90
3818;DHT22;1924;48.078;11.516;2023-06-14T04:51:20;14.10;78.20
3818;DHT22;1924;48.078;11.516;2023-06-14T04:53:56;14.30;77.40
3818;DHT22;1924;48.078;11.516;2023-06-14T04:56:23;14.50;76.60
3818;DHT22;1924;48.078;11.516;2023-06-14T04:58:50;14.60;76.30
3818;DHT22;1924;48.078;11.516;2023-06-14T05:01:17;14.80;76.30
3818;DHT22;1924;48.078;11.516;2023-06-14T05:03:43;14.90;76.40
3818;DHT22;1924;48.078;11.516;2023-06-14T05:06:14;15.20;76.00
3818;DHT22;1924;48.078;11.516;2023-06-14T05:08:40;15.30;75.00
3818;DHT22;1924;48.078;11.516;2023-06-14T05:11:08;15.50;74.10
3818;DHT22;1924;48.078;11.516;2023-06-14T05:13:35;15.60;73.70
3818;DHT22;1924;48.078;11.516;2023-06-14T05:16:02;15.80;73.40
3818;DHT22;1924;48.078;11.516;2023-06-14T05:18:29;15.70;72.30
3818;DHT22;1924;48.078;11.516;2023-06-14T05:20:55;15.90;72.30
3818;DHT22;1924;48.078;11.516;2023-06-14T05:23:22;15.90;70.50
3818;DHT22;1924;48.078;11.516;2023-06-14T05:25:49;16.00;69.10
3818;DHT22;1924;48.078;11.516;2023-06-14T05:28:17;15.90;67.00
3818;DHT22;1924;48.078;11.516;2023-06-14T05:30:43;15.60;67.60
3818;DHT22;1924;48.078;11.516;2023-06-14T05:33:10;15.50;67.00
3818;DHT22;1924;48.078;11.516;2023-06-14T05:35:37;15.30;67.00
3818;DHT22;1924;48.078;11.516;2023-06-14T05:38:04;14.60;68.30
3818;DHT22;1924;48.078;11.516;2023-06-14T05:40:31;14.70;68.70
3818;DHT22;1924;48.078;11.516;2023-06-14T05:42:58;15.20;69.10
3818;DHT22;1924;48.078;11.516;2023-06-14T05:45:26;15.10;67.30
3818;DHT22;1924;48.078;11.516;2023-06-14T05:47:52;14.90;67.50
3818;DHT22;1924;48.078;11.516;2023-06-14T05:50:20;14.70;67.90
3818;DHT22;1924;48.078;11.516;2023-06-14T05:52:47;15.00;68.50
3818;DHT22;1924;48.078;11.516;2023-06-14T05:55:15;15.10;68.40
3818;DHT22;1924;48.078;11.516;2023-06-14T05:57:43;15.70;70.00
3818;DHT22;1924;48.078;11.516;2023-06-14T06:00:10;16.20;68.30
3818;DHT22;1924;48.078;11.516;2023-06-14T06:02:41;16.80;67.70
3818;DHT22;1924;48.078;11.516;2023-06-14T06:05:08;17.00;66.00
3818;DHT22;1924;48.078;11.516;2023-06-14T06:07:35;16.70;65.70
3818;DHT22;1924;48.078;11.516;2023-06-14T06:10:01;16.40;66.20
3818;DHT22;1924;48.078;11.516;2023-06-14T06:12:28;16.00;65.90
3818;DHT22;1924;48.078;11.516;2023-06-14T06:14:55;15.70;67.00
3818;DHT22;1924;48.078;11.516;2023-06-14T06:17:21;16.20;67.10
3818;DHT22;1924;48.078;11.516;2023-06-14T06:19:49;16.40;67.60
3818;DHT22;1924;48.078;11.516;2023-06-14T06:22:16;16.10;65.40
3818;DHT22;1924;48.078;11.516;2023-06-14T06:24:43;16.10;67.60
3818;DHT22;1924;48.078;11.516;2023-06-14T06:27:10;16.10;66.80
3818;DHT22;1924;48.078;11.516;2023-06-14T06:29:38;16.40;68.00
3818;DHT22;1924;48.078;11.516;2023-06-14T06:32:05;16.80;66.10
3818;DHT22;1924;48.078;11.516;2023-06-14T06:34:32;17.00;65.80
3818;DHT22;1924;48.078;11.516;2023-06-14T06:37:00;17.20;65.60
3818;DHT22;1924;48.078;11.516;2023-06-14T06:39:27;16.80;63.80
3818;DHT22;1924;48.078;11.516;2023-06-14T06:41:53;16.30;66.50
3818;DHT22;1924;48.078;11.516;2023-06-14T06:44:21;16.80;66.60
3818;DHT22;1924;48.078;11.516;2023-06-14T06:46:47;16.90;65.30
3818;DHT22;1924;48.078;11.516;2023-06-14T06:49:14;16.90;65.10
3818;DHT22;1924;48.078;11.516;2023-06-14T06:51:42;17.10;66.00
3818;DHT22;1924;48.078;11.516;2023-06-14T06:54:11;17.40;65.30
3818;DHT22;1924;48.078;11.516;2023-06-14T06:56:37;17.10;64.00
3818;DHT22;1924;48.078;11.516;2023-06-14T06:59:04;17.00;65.60
3818;DHT22;1924;48.078;11.516;2023-06-14T07:01:31;17.40;66.00
3818;DHT22;1924;48.078;11.516;2023-06-14T07:03:59;17.50;63.30
3818;DHT22;1924;48.078;11.516;2023-06-14T07:06:25;17.80;64.90
3818;DHT22;1924;48.078;11.516;2023-06-14T07:08:52;18.20;63.10
3818;DHT22;1924;48.078;11.516;2023-06-14T07:11:21;18.40;62.70
3818;DHT22;1924;48.078;11.516;2023-06-14T07:13:48;18.20;61.80
3818;DHT22;1924;48.078;11.516;2023-06-14T07:16:14;18.30;61.90
3818;DHT22;1924;48.078;11.516;2023-06-14T07:18:41;18.50;61.70
3818;DHT22;1924;48.078;11.516;2023-06-14T07:21:08;18.50;61.20
3818;DHT22;1924;48.078;11.516;2023-06-14T07:23:35;18.40;61.10
3818;DHT22;1924;48.078;11.516;2023-06-14T07:26:01;18.70;61.70
3818;DHT22;1924;48.078;11.516;2023-06-14T07:28:29;19.20;61.40
3818;DHT22;1924;48.078;11.516;2023-06-14T07:30:56;19.20;60.50
3818;DHT22;1924;48.078;11.516;2023-06-14T07:33:23;19.30;59.70
3818;DHT22;1924;48.078;11.516;2023-06-14T07:35:49;19.70;61.10
3818;DHT22;1924;48.078;11.516;2023-06-14T07:38:18;19.70;58.20
3818;DHT22;1924;48.078;11.516;2023-06-14T07:40:45;19.20;58.80
3818;DHT22;1924;48.078;11.516;2023-06-14T07:43:12;19.20;59.10
3818;DHT22;1924;48.078;11.516;2023-06-14T07:45:40;18.90;59.20
3818;DHT22;1924;48.078;11.516;2023-06-14T07:48:06;19.10;59.40
3818;DHT22;1924;48.078;11.516;2023-06-14T07:50:33;19.30;60.60
3818;DHT22;1924;48.078;11.516;2023-06-14T07:53:00;19.80;59.70
3818;DHT22;1924;48.078;11.516;2023-06-14T07:55:26;20.00;58.70
3818;DHT22;1924;48.078;11.516;2023-06-14T07:57:53;20.10;57.00
3818;DHT22;1924;48.078;11.516;2023-06-14T08:00:21;20.10;55.90
3818;DHT22;1924;48.078;11.516;2023-06-14T08:02:49;19.90;55.00
3818;DHT22;1924;48.078;11.516;2023-06-14T08:05:16;19.80;55.50
3818;DHT22;1924;48.078;11.516;2023-06-14T08:07:42;19.70;55.50
3818;DHT22;1924;48.078;11.516;2023-06-14T08:10:09;19.80;56.00
3818;DHT22;1924;48.078;11.516;2023-06-14T08:12:36;19.80;56.10
3818;DHT22;1924;48.078;11.516;2023-06-14T08:15:04;19.60;53.30
3818;DHT22;1924;48.078;11.516;2023-06-14T08:17:31;19.80;51.00
3818;DHT22;1924;48.078;11.516;2023-06-14T08:19:59;19.90;53.00
3818;DHT22;1924;48.078;11.516;2023-06-14T08:22:25;19.80;50.70
3818;DHT22;1924;48.078;11.516;2023-06-14T08:24:54;20.10;49.30
3818;DHT22;1924;48.078;11.516;2023-06-14T08:27:20;20.20;47.10
3818;DHT22;1924;48.078;11.516;2023-06-14T08:29:48;20.00;45.50
3818;DHT22;1924;48.078;11.516;2023-06-14T08:32:14;20.20;48.50
3818;DHT22;1924;48.078;11.516;2023-06-14T08:34:41;20.60;46.60
3818;DHT22;1924;48.078;11.516;2023-06-14T08:37:09;20.70;46.40
3818;DHT22;1924;48.078;11.516;2023-06-14T08:39:36;20.30;46.50
3818;DHT22;1924;48.078;11.516;2023-06-14T08:42:04;20.20;47.00
3818;DHT22;1924;48.078;11.516;2023-06-14T08:44:32;20.20;44.70
3818;DHT22;1924;48.078;11.516;2023-06-14T08:46:59;20.30;45.10
3818;DHT22;1924;48.078;11.516;2023-06-14T08:49:26;20.50;46.10
3818;DHT22;1924;48.078;11.516;2023-06-14T08:51:57;20.60;44.90
3818;DHT22;1924;48.078;11.516;2023-06-14T08:54:28;20.50;43.90
3818;DHT22;1924;48.078;11.516;2023-06-14T08:56:56;20.00;44.40
3818;DHT22;1924;48.078;11.516;2023-06-14T08:59:24;20.20;45.60
3818;DHT22;1924;48.078;11.516;2023-06-14T09:01:52;20.40;45.00
3818;DHT22;1924;48.078;11.516;2023-06-14T09:04:19;20.40;45.50
3818;DHT22;1924;48.078;11.516;2023-06-14T09:06:47;20.50;46.00
3818;DHT22;1924;48.078;11.516;2023-06-14T09:09:18;20.60;45.60
3818;DHT22;1924;48.078;11.516;2023-06-14T09:11:46;20.70;47.30
3818;DHT22;1924;48.078;11.516;2023-06-14T09:14:13;20.90;46.20
3818;DHT22;1924;48.078;11.516;2023-06-14T09:16:40;20.90;45.90
3818;DHT22;1924;48.078;11.516;2023-06-14T09:19:07;21.10;45.80
3818;DHT22;1924;48.078;11.516;2023-06-14T09:21:34;20.70;44.20
3818;DHT22;1924;48.078;11.516;2023-06-14T09:24:03;20.40;45.30
3818;DHT22;1924;48.078;11.516;2023-06-14T09:26:29;20.70;46.20
3818;DHT22;1924;48.078;11.516;2023-06-14T09:28:57;20.70;45.60
3818;DHT22;1924;48.078;11.516;2023-06-14T09:31:24;20.70;44.00
3818;DHT22;1924;48.078;11.516;2023-06-14T09:33:55;20.70;44.40
3818;DHT22;1924;48.078;11.516;2023-06-14T09:36:23;20.90;44.50
3818;DHT22;1924;48.078;11.516;2023-06-14T09:38:53;20.80;45.30
3818;DHT22;1924;48.078;11.516;2023-06-14T09:41:20;20.80;46.20
3818;DHT22;1924;48.078;11.516;2023-06-14T09:43:47;21.00;47.70
3818;DHT22;1924;48.078;11.516;2023-06-14T09:46:16;21.40;51.30
3818;DHT22;1924;48.078;11.516;2023-06-14T09:48:43;21.40;45.80
3818;DHT22;1924;48.078;11.516;2023-06-14T09:51:10;21.20;46.40
3818;DHT22;1924;48.078;11.516;2023-06-14T09:53:40;21.20;47.50
3818;DHT22;1924;48.078;11.516;2023-06-14T09:56:07;21.70;50.50
3818;DHT22;1924;48.078;11.516;2023-06-14T09:58:37;21.80;46.80
3818;DHT22;1924;48.078;11.516;2023-06-14T10:01:08;21.80;46.60
3818;DHT22;1924;48.078;11.516;2023-06-14T10:03:41;21.00;47.60
3818;DHT22;1924;48.078;11.516;2023-06-14T10:06:09;20.80;48.50
3818;DHT22;1924;48.078;11.516;2023-06-14T10:08:36;20.40;48.90
3818;DHT22;1924;48.078;11.516;2023-06-14T10:11:04;20.10;49.20
3818;DHT22;1924;48.078;11.516;2023-06-14T10:13:32;20.10;49.50
3818;DHT22;1924;48.078;11.516;2023-06-14T10:16:05;20.40;50.90
3818;DHT22;1924;48.078;11.516;2023-06-14T10:18:40;20.50;51.00
3818;DHT22;1924;48.078;11.516;2023-06-14T10:21:16;20.40;50.80
3818;DHT22;1924;48.078;11.516;2023-06-14T10:23:44;20.20;50.50
3818;DHT22;1924;48.078;11.516;2023-06-14T10:26:19;20.10;50.40
3818;DHT22;1924;48.078;11.516;2023-06-14T10:28:56;20.10;51.30
3818;DHT22;1924;48.078;11.516;2023-06-14T10:31:23;20.50;50.40
3818;DHT22;1924;48.078;11.516;2023-06-14T10:34:07;20.80;49.70
3818;DHT22;1924;48.078;11.516;2023-06-14T10:36:33;21.00;50.50
3818;DHT22;1924;48.078;11.516;2023-06-14T10:39:04;21.20;48.80
3818;DHT22;1924;48.078;11.516;2023-06-14T10:41:33;21.70;49.50
3818;DHT22;1924;48.078;11.516;2023-06-14T10:44:38;22.20;48.70
3818;DHT22;1924;48.078;11.516;2023-06-14T10:47:24;21.80;47.50
3818;DHT22;1924;48.078;11.516;2023-06-14T10:49:54;21.70;47.10
3818;DHT22;1924;48.078;11.516;2023-06-14T10:52:23;21.80;47.30
3818;DHT22;1924;48.078;11.516;2023-06-14T10:55:04;21.60;47.80
3818;DHT22;1924;48.078;11.516;2023-06-14T10:57:32;22.10;46.90
3818;DHT22;1924;48.078;11.516;2023-06-14T10:59:59;22.50;48.40
3818;DHT22;1924;48.078;11.516;2023-06-14T11:05:41;22.30;48.20
3818;DHT22;1924;48.078;11.516;2023-06-14T11:08:27;22.50;46.20
3818;DHT22;1924;48.078;11.516;2023-06-14T11:10:54;22.10;46.70
3818;DHT22;1924;48.078;11.516;2023-06-14T11:13:26;22.10;48.20
3818;DHT22;1924;48.078;11.516;2023-06-14T11:15:52;22.20;50.30
3818;DHT22;1924;48.078;11.516;2023-06-14T11:18:21;22.50;50.60
3818;DHT22;1924;48.078;11.516;2023-06-14T11:20:51;23.10;51.80
3818;DHT22;1924;48.078;11.516;2023-06-14T11:23:17;23.10;46.30
3818;DHT22;1924;48.078;11.516;2023-06-14T11:25:49;22.60;47.40
3818;DHT22;1924;48.078;11.516;2023-06-14T11:28:16;22.10;50.00
3818;DHT22;1924;48.078;11.516;2023-06-14T11:30:45;22.20;49.00
3818;DHT22;1924;48.078;11.516;2023-06-14T11:33:15;22.20;49.50
3818;DHT22;1924;48.078;11.516;2023-06-14T11:35:43;22.70;48.90
3818;DHT22;1924;48.078;11.516;2023-06-14T11:38:11;22.60;48.20
3818;DHT22;1924;48.078;11.516;2023-06-14T11:40:38;22.70;49.30
3818;DHT22;1924;48.078;11.516;2023-06-14T11:43:05;22.90;47.90
3818;DHT22;1924;48.078;11.516;2023-06-14T11:45:32;22.40;48.40
3818;DHT22;1924;48.078;11.516;2023-06-14T11:47:59;22.30;49.10
3818;DHT22;1924;48.078;11.516;2023-06-14T11:50:26;21.90;48.70
3818;DHT22;1924;48.078;11.516;2023-06-14T11:52:54;22.20;48.10
3818;DHT22;1924;48.078;11.516;2023-06-14T11:55:23;22.00;48.60
3818;DHT22;1924;48.078;11.516;2023-06-14T11:57:49;22.30;50.30
3818;DHT22;1924;48.078;11.516;2023-06-14T12:00:17;22.10;48.60
3818;DHT22;1924;48.078;11.516;2023-06-14T12:02:52;22.10;48.20
3818;DHT22;1924;48.078;11.516;2023-06-14T12:05:21;22.30;48.60
3818;DHT22;1924;48.078;11.516;2023-06-14T12:07:48;22.20;47.10
3818;DHT22;1924;48.078;11.516;2023-06-14T12:10:16;22.30;47.30
3818;DHT22;1924;48.078;11.516;2023-06-14T12:12:44;22.40;47.80
3818;DHT22;1924;48.078;11.516;2023-06-14T12:15:11;22.00;49.00
3818;DHT22;1924;48.078;11.516;2023-06-14T12:17:38;22.30;48.60
3818;DHT22;1924;48.078;11.516;2023-06-14T12:20:09;22.70;47.00
3818;DHT22;1924;48.078;11.516;2023-06-14T12:22:46;22.50;48.20
3818;DHT22;1924;48.078;11.516;2023-06-14T12:25:23;22.60;47.80
3818;DHT22;1924;48.078;11.516;2023-06-14T12:27:53;22.40;45.40
3818;DHT22;1924;48.078;11.516;2023-06-14T12:30:20;22.40;47.30
3818;DHT22;1924;48.078;11.516;2023-06-14T12:32:47;22.80;46.80
3818;DHT22;1924;48.078;11.516;2023-06-14T12:35:14;22.80;45.30
3818;DHT22;1924;48.078;11.516;2023-06-14T12:37:41;22.70;45.70
3818;DHT22;1924;48.078;11.516;2023-06-14T12:40:08;22.90;45.30
3818;DHT22;1924;48.078;11.516;2023-06-14T12:42:36;23.10;44.80
3818;DHT22;1924;48.078;11.516;2023-06-14T12:45:05;23.20;45.80
3818;DHT22;1924;48.078;11.516;2023-06-14T12:47:32;22.90;46.00
3818;DHT22;1924;48.078;11.516;2023-06-14T12:49:59;23.20;45.30
3818;DHT22;1924;48.078;11.516;2023-06-14T12:52:26;22.90;46.20
3818;DHT22;1924;48.078;11.516;2023-06-14T12:54:52;22.60;45.20
3818;DHT22;1924;48.078;11.516;2023-06-14T12:57:19;22.40;45.40
3818;DHT22;1924;48.078;11.516;2023-06-14T12:59:46;22.40;45.60
3818;DHT22;1924;48.078;11.516;2023-06-14T13:02:16;22.50;44.70
3818;DHT22;1924;48.078;11.516;2023-06-14T13:04:43;22.30;44.20
3818;DHT22;1924;48.078;11.516;2023-06-14T13:07:10;22.20;44.70
3818;DHT22;1924;48.078;11.516;2023-06-14T13:09:37;22.00;45.10
3818;DHT22;1924;48.078;11.516;2023-06-14T13:12:04;22.20;45.80
3818;DHT22;1924;48.078;11.516;2023-06-14T13:14:31;22.70;44.80
3818;DHT22;1924;48.078;11.516;2023-06-14T13:16:57;22.70;43.40
3818;DHT22;1924;48.078;11.516;2023-06-14T13:19:25;22.30;43.80
3818;DHT22;1924;48.078;11.516;2023-06-14T13:21:52;22.70;45.00
3818;DHT22;1924;48.078;11.516;2023-06-14T13:24:19;22.90;44.60
3818;DHT22;1924;48.078;11.516;2023-06-14T13:26:45;22.80;45.70
3818;DHT22;1924;48.078;11.516;2023-06-14T13:29:12;22.60;45.10
3818;DHT22;1924;48.078;11.516;2023-06-14T13:31:39;22.50;45.40
3818;DHT22;1924;48.078;11.516;2023-06-14T13:34:06;22.50;44.80
3818;DHT22;1924;48.078;11.516;2023-06-14T13:36:34;22.40;44.90
3818;DHT22;1924;48.078;11.516;2023-06-14T13:39:00;22.50;45.00
3818;DHT22;1924;48.078;11.516;2023-06-14T13:41:28;22.50;44.30
3818;DHT22;1924;48.078;11.516;2023-06-14T13:43:57;22.70;46.00
3818;DHT22;1924;48.078;11.516;2023-06-14T13:46:24;22.70;44.40
3818;DHT22;1924;48.078;11.516;2023-06-14T13:48:51;23.10;46.00
3818;DHT22;1924;48.078;11.516;2023-06-14T13:51:18;23.40;45.50
3818;DHT22;1924;48.078;11.516;2023-06-14T13:53:48;23.40;43.50
3818;DHT22;1924;48.078;11.516;2023-06-14T13:56:16;22.90;42.60
3818;DHT22;1924;48.078;11.516;2023-06-14T13:58:43;22.20;42.90
3818;DHT22;1924;48.078;11.516;2023-06-14T14:01:10;22.20;43.60
3818;DHT22;1924;48.078;11.516;2023-06-14T14:03:37;22.30;44.20
3818;DHT22;1924;48.078;11.516;2023-06-14T14:06:04;22.20;43.10
3818;DHT22;1924;48.078;11.516;2023-06-14T14:08:31;22.30;43.60
3818;DHT22;1924;48.078;11.516;2023-06-14T14:10:59;22.40;43.00
3818;DHT22;1924;48.078;11.516;2023-06-14T14:13:26;22.40;43.60
3818;DHT22;1924;48.078;11.516;2023-06-14T14:15:53;22.50;45.10
3818;DHT22;1924;48.078;11.516;2023-06-14T14:18:19;22.40;45.20
3818;DHT22;1924;48.078;11.516;2023-06-14T14:20:47;22.40;43.20
3818;DHT22;1924;48.078;11.516;2023-06-14T14:23:13;22.00;43.10
3818;DHT22;1924;48.078;11.516;2023-06-14T14:25:40;21.80;43.40
3818;DHT22;1924;48.078;11.516;2023-06-14T14:28:08;22.00;44.60
3818;DHT22;1924;48.078;11.516;2023-06-14T14:30:36;22.10;44.10
3818;DHT22;1924;48.078;11.516;2023-06-14T14:33:05;22.20;46.40
3818;DHT22;1924;48.078;11.516;2023-06-14T14:35:32;22.20;44.40
3818;DHT22;1924;48.078;11.516;2023-06-14T14:37:58;22.30;42.70
3818;DHT22;1924;48.078;11.516;2023-06-14T14:40:25;22.10;43.30
3818;DHT22;1924;48.078;11.516;2023-06-14T14:42:52;22.20;43.20
3818;DHT22;1924;48.078;11.516;2023-06-14T14:45:20;22.30;43.00
3818;DHT22;1924;48.078;11.516;2023-06-14T14:47:46;22.30;42.00
3818;DHT22;1924;48.078;11.516;2023-06-14T14:50:13;22.20;42.90
3818;DHT22;1924;48.078;11.516;2023-06-14T14:52:40;22.40;44.20
3818;DHT22;1924;48.078;11.516;2023-06-14T14:55:07;22.40;42.60
3818;DHT22;1924;48.078;11.516;2023-06-14T14:57:34;22.30;42.60
3818;DHT22;1924;48.078;11.516;2023-06-14T15:00:02;22.40;43.50
3818;DHT22;1924;48.078;11.516;2023-06-14T15:02:30;22.30;43.50
3818;DHT22;1924;48.078;11.516;2023-06-14T15:04:57;22.40;43.00
3818;DHT22;1924;48.078;11.516;2023-06-14T15:07:26;22.40;41.70
3818;DHT22;1924;48.078;11.516;2023-06-14T15:09:53;22.40;41.50
3818;DHT22;1924;48.078;11.516;2023-06-14T15:12:19;22.20;42.20
3818;DHT22;1924;48.078;11.516;2023-06-14T15:14:49;22.30;41.80
3818;DHT22;1924;48.078;11.516;2023-06-14T15:17:16;22.20;42.50
3818;DHT22;1924;48.078;11.516;2023-06-14T15:19:44;22.10;43.40
3818;DHT22;1924;48.078;11.516;2023-06-14T15:22:11;22.00;44.60
3818;DHT22;1924;48.078;11.516;2023-06-14T15:24:38;22.00;44.10
3818;DHT22;1924;48.078;11.516;2023-06-14T15:27:05;21.90;44.60
3818;DHT22;1924;48.078;11.516;2023-06-14T15:29:32;21.70;44.10
3818;DHT22;1924;48.078;11.516;2023-06-14T15:32:00;21.60;44.40
3818;DHT22;1924;48.078;11.516;2023-06-14T15:34:27;21.70;45.20
3818;DHT22;1924;48.078;11.516;2023-06-14T15:36:55;21.90;44.30
3818;DHT22;1924;48.078;11.516;2023-06-14T15:39:22;21.90;44.60
3818;DHT22;1924;48.078;11.516;2023-06-14T15:41:49;21.90;44.60
3818;DHT22;1924;48.078;11.516;2023-06-14T15:44:19;21.90;44.80
3818;DHT22;1924;48.078;11.516;2023-06-14T15:46:46;22.00;45.20
3818;DHT22;1924;48.078;11.516;2023-06-14T15:49:13;22.10;47.20
3818;DHT22;1924;48.078;11.516;2023-06-14T15:51:40;22.20;45.50
3818;DHT22;1924;48.078;11.516;2023-06-14T15:54:08;22.30;45.30
3818;DHT22;1924;48.078;11.516;2023-06-14T15:56:34;22.20;44.40
3818;DHT22;1924;48.078;11.516;2023-06-14T15:59:01;22.10;44.70
3818;DHT22;1924;48.078;11.516;2023-06-14T16:01:29;22.00;45.50
3818;DHT22;1924;48.078;11.516;2023-06-14T16:03:56;22.00;44.20
3818;DHT22;1924;48.078;11.516;2023-06-14T16:06:23;22.00;45.00
3818;DHT22;1924;48.078;11.516;2023-06-14T16:08:49;22.00;46.60
3818;DHT22;1924;48.078;11.516;2023-06-14T16:11:19;22.00;46.40
3818;DHT22;1924;48.078;11.516;2023-06-14T16:13:46;21.90;45.90
3818;DHT22;1924;48.078;11.516;2023-06-14T16:16:13;21.80;46.30
3818;DHT22;1924;48.078;11.516;2023-06-14T16:18:40;21.70;46.90
3818;DHT22;1924;48.078;11.516;2023-06-14T16:21:07;21.70;47.80
3818;DHT22;1924;48.078;11.516;2023-06-14T16:23:35;21.90;47.60
3818;DHT22;1924;48.078;11.516;2023-06-14T16:26:04;21.90;47.70
3818;DHT22;1924;48.078;11.516;2023-06-14T16:28:32;21.80;46.30
3818;DHT22;1924;48.078;11.516;2023-06-14T16:30:58;21.70;46.70
3818;DHT22;1924;48.078;11.516;2023-06-14T16:33:25;21.60;46.90
3818;DHT22;1924;48.078;11.516;2023-06-14T16:35:52;21.60;46.50
3818;DHT22;1924;48.078;11.516;2023-06-14T16:38:18;21.60;47.30
3818;DHT22;1924;48.078;11.516;2023-06-14T16:40:46;21.70;48.50
3818;DHT22;1924;48.078;11.516;2023-06-14T16:43:13;21.70;47.60
3818;DHT22;1924;48.078;11.516;2023-06-14T16:45:41;21.80;46.40
3818;DHT22;1924;48.078;11.516;2023-06-14T16:48:08;21.90;47.20
3818;DHT22;1924;48.078;11.516;2023-06-14T16:50:35;21.90;47.30
3818;DHT22;1924;48.078;11.516;2023-06-14T16:53:02;21.90;46.30
3818;DHT22;1924;48.078;11.516;2023-06-14T16:55:28;21.90;46.80
3818;DHT22;1924;48.078;11.516;2023-06-14T16:57:56;21.90;47.00
3818;DHT22;1924;48.078;11.516;2023-06-14T17:00:24;21.70;46.90
3818;DHT22;1924;48.078;11.516;2023-06-14T17:02:52;21.60;48.00
3818;DHT22;1924;48.078;11.516;2023-06-14T17:05:19;21.50;48.10
3818;DHT22;1924;48.078;11.516;2023-06-14T17:07:46;21.40;48.60
3818;DHT22;1924;48.078;11.516;2023-06-14T17:10:13;21.40;48.70
3818;DHT22;1924;48.078;11.516;2023-06-14T17:12:40;21.40;48.70